Flight Track Log - Related Links

Times and Time Zones

All times are in EST time to prevent confusion due to time zone crossing. See the UCA3597 flight status page for this flight to view local times or setup timezone preferences in your user account.

Time Position Orientation Groundspeed Altitude Reporting Facility
EST Latitude Longitude Course Direction KTS MPH feet Rate Location/Type
Tue 07:23:39 PM 42.2325 -76.0556 205° Southwest 130 150 4,800  Level New York Center
Tue 07:24:39 PM 42.1897 -76.0831 205° Southwest 106 122 6,400 1,650 Climbing New York Center
Tue 07:25:39 PM 42.1506 -76.1189 214° Southwest 153 176 8,100 1,600 Climbing New York Center
Tue 07:26:39 PM 42.1075 -76.1517 209° Southwest 171 197 9,600 1,550 Climbing New York Center
Tue 07:27:39 PM 42.0642 -76.1875 212° Southwest 176 203 11,200 1,600 Climbing New York Center
Tue 07:28:39 PM 42.0231 -76.2203 211° Southwest 176 203 12,800 1,600 Climbing New York Center
Tue 07:29:39 PM 41.9819 -76.2561 213° Southwest 176 203 14,400 1,450 Climbing New York Center
Tue 07:30:39 PM 41.9494 -76.2839 212° Southwest 171 197 15,700 800 Climbing New York Center
Tue 07:31:39 PM 41.9064 -76.3167 210° Southwest 177 204 16,000 150 Climbing New York Center
Tue 07:32:39 PM 41.8500 -76.3619 211° Southwest 206 237 16,000  Level New York Center
Tue 07:33:39 PM 41.8022 -76.4053 214° Southwest 214 246 16,000  Level New York Center
Tue 07:34:39 PM 41.7506 -76.4428 208° Southwest 219 252 16,000  Level New York Center
Tue 07:35:39 PM 41.7028 -76.4803 210° Southwest 214 246 16,000  Level New York Center
Tue 07:36:39 PM 41.6464 -76.5256 211° Southwest 214 246 16,000  Level New York Center
Tue 07:37:39 PM 41.5944 -76.5681 211° Southwest 219 252 16,000  Level New York Center
Tue 07:38:39 PM 41.5444 -76.6081 211° Southwest 219 252 16,000  Level New York Center
Tue 07:39:39 PM 41.4989 -76.6458 212° Southwest 214 246 16,000  Level New York Center
Tue 07:40:39 PM 41.4469 -76.6856 210° Southwest 220 253 16,000  Level New York Center
Tue 07:41:39 PM 41.3947 -76.7308 213° Southwest 220 253 16,000  Level New York Center
Tue 07:42:40 PM 41.3425 -76.7731 211° Southwest 220 253 16,000  Level New York Center
Tue 07:43:39 PM 41.2772 -76.7894 191° South 220 253 16,000  Level New York Center
Tue 07:44:39 PM 41.2078 -76.8025 188° South 239 275 16,000  Level New York Center
Tue 07:45:39 PM 41.1383 -76.8156 188° South 256 295 16,000  Level New York Center
Tue 07:46:39 PM 41.0711 -76.8289 189° South 256 295 16,000  Level New York Center
Tue 07:47:39 PM 41.0014 -76.8447 190° South 256 295 16,000  Level New York Center
Tue 07:48:39 PM 40.9281 -76.8547 186° South 261 300 16,000  Level New York Center
Tue 07:49:39 PM 40.8500 -76.8722 190° South 261 300 16,000  Level New York Center
Tue 07:50:39 PM 40.7806 -76.8853 188° South 266 306 16,000  Level New York Center
Tue 07:51:39 PM 40.7061 -76.9117 195° South 259 298 16,000  Level New York Center
Tue 07:52:39 PM 40.6428 -76.9306 193° South 259 298 16,000  Level New York Center
Tue 07:53:39 PM 40.5706 -76.9542 194° South 253 291 16,000  Level New York Center
Tue 07:54:39 PM 40.5092 -76.9731 193° South 253 291 16,000  Level New York Center
Tue 07:55:39 PM 40.4350 -76.9939 192° South 253 291 16,000 -250 Level New York Center
Tue 07:56:39 PM 40.3736 -77.0156 195° South 248 285 15,500 -650 Descending New York Center
Tue 07:57:39 PM 40.2911 -77.0381 192° South 266 306 14,700 -850 Descending New York Center
Tue 07:58:39 PM 40.2253 -77.0592 194° South 266 306 13,800 -1,043 Descending New York Center
Tue 08:01:06 PM 40.0333 -77.1167 193° South 273 314 11,100 -1,101 Descending Potomac TRACON
Tue 08:02:06 PM 39.9667 -77.1333 191° South 267 307 10,000 -952 Descending Potomac TRACON
Tue 08:03:12 PM 39.8833 -77.1667 197° South 261 300 9,100 -600 Descending Potomac TRACON
Tue 08:04:06 PM 39.8333 -77.1833 194° South 247 284 8,800 -522 Descending Potomac TRACON
Tue 08:05:07 PM 39.7667 -77.2333 210° Southwest 244 281 8,100 -694 Descending Potomac TRACON
Tue 08:06:07 PM 39.7000 -77.2667 201° Southwest 257 296 7,400 -476 Descending Potomac TRACON
Tue 08:07:13 PM 39.6167 -77.2833 189° South 258 297 7,100 -149 Descending Potomac TRACON
Tue 08:08:08 PM 39.5667 -77.3167 207° Southwest 260 299 7,100  Level Potomac TRACON
Tue 08:09:08 PM 39.5000 -77.3333 191° South 253 291 7,100  Level Potomac TRACON
Tue 08:10:08 PM 39.4333 -77.3500 191° South 255 293 7,100 -476 Level Potomac TRACON
Tue 08:11:14 PM 39.3333 -77.3667 187° South 275 316 6,100 -952 Descending Potomac TRACON
Tue 08:12:14 PM 39.2667 -77.3667 180° South 257 296 5,100 -500 Descending Potomac TRACON
Tue 08:13:14 PM 39.2000 -77.3667 180° South 252 290 5,100 -421 Level Potomac TRACON
Tue 08:14:08 PM 39.1333 -77.3667 180° South 225 259 4,300 -1,053 Descending Potomac TRACON
Tue 08:15:08 PM 39.0833 -77.3667 180° South 229 264 3,100 -600 Descending Potomac TRACON
Tue 08:16:08 PM 39.0167 -77.3500 169° South 224 258 3,100  Level Potomac TRACON
Tue 08:17:08 PM 38.9667 -77.3500 180° South 196 226 3,100  Level Potomac TRACON
Tue 08:18:02 PM 38.9167 -77.3500 180° South 198 228 3,100 -421 Level Potomac TRACON
Tue 08:19:02 PM 38.8667 -77.3667 195° South 190 219 2,300 -650 Descending Potomac TRACON
Tue 08:20:02 PM 38.8667 -77.4167 270° West 129 148 1,800 -645 Descending Potomac TRACON
Tue 08:21:03 PM 38.9000 -77.4333 339° North 118 136 1,000 -787 Descending Potomac TRACON

Login

Don't have an account? Register now (free) for customized features, flight alerts, and more!